createdAt,value
2022-12-31T00:01:32.257Z,100706.47
2022-12-31T00:03:59.809Z,100709.06
2022-12-31T00:06:30.590Z,100712.88
2022-12-31T00:09:01.297Z,100709.84
2022-12-31T00:11:31.366Z,100709.72
2022-12-31T00:13:59.655Z,100719.53
2022-12-31T00:16:39.313Z,100721.22
2022-12-31T00:19:10.732Z,100729.00
2022-12-31T00:21:39.434Z,100726.22
2022-12-31T00:24:08.100Z,100729.38
2022-12-31T00:26:36.457Z,100735.94
2022-12-31T00:29:05.825Z,100731.31
2022-12-31T00:31:37.528Z,100740.31
2022-12-31T00:34:05.953Z,100750.22
2022-12-31T00:36:37.325Z,100757.41
2022-12-31T00:39:07.086Z,100752.09
2022-12-31T00:41:35.200Z,100748.66
2022-12-31T00:44:03.434Z,100748.16
2022-12-31T00:46:33.606Z,100749.72
2022-12-31T00:49:01.313Z,100757.06
2022-12-31T00:51:29.023Z,100750.91
2022-12-31T00:53:57.825Z,100755.03
2022-12-31T00:56:29.364Z,100752.69
2022-12-31T00:58:59.183Z,100759.03
2022-12-31T01:01:40.904Z,100754.38
2022-12-31T01:04:17.366Z,100754.03
2022-12-31T01:06:45.718Z,100757.91
2022-12-31T01:09:15.518Z,100763.19
2022-12-31T01:11:43.279Z,100762.06
2022-12-31T01:14:19.478Z,100762.16
2022-12-31T01:16:51.241Z,100760.78
2022-12-31T01:19:27.933Z,100761.00
2022-12-31T01:21:56.520Z,100752.97
2022-12-31T01:24:24.040Z,100750.19
2022-12-31T01:26:57.941Z,100751.81
2022-12-31T01:29:26.653Z,100745.38
2022-12-31T01:31:54.274Z,100740.78
2022-12-31T01:34:21.765Z,100739.09
2022-12-31T01:36:49.735Z,100742.03
2022-12-31T01:39:18.258Z,100748.91
2022-12-31T01:41:48.380Z,100746.06
2022-12-31T01:44:24.725Z,100742.91
2022-12-31T01:47:09.839Z,100736.06
2022-12-31T01:49:49.618Z,100740.22
2022-12-31T01:52:29.172Z,100743.38
2022-12-31T01:55:32.892Z,100737.63
2022-12-31T01:58:18.228Z,100747.25
2022-12-31T02:00:47.560Z,100746.66
2022-12-31T02:03:15.388Z,100751.75
2022-12-31T02:06:20.780Z,100749.75
2022-12-31T02:08:48.926Z,100753.66
2022-12-31T02:11:29.438Z,100756.44
2022-12-31T02:14:02.714Z,100750.66
2022-12-31T02:16:40.110Z,100741.97
2022-12-31T02:19:25.754Z,100746.16
2022-12-31T02:22:22.855Z,100747.28
2022-12-31T02:25:17.649Z,100747.28
2022-12-31T02:28:13.554Z,100742.44
2022-12-31T02:30:43.144Z,100749.81
2022-12-31T02:33:35.707Z,100744.31
2022-12-31T02:36:14.274Z,100739.00
2022-12-31T02:38:46.812Z,100751.38
2022-12-31T02:41:38.882Z,100754.41
2022-12-31T02:44:32.697Z,100750.06
2022-12-31T02:47:32.304Z,100756.50
2022-12-31T02:50:40.890Z,100757.16
2022-12-31T02:53:45.111Z,100763.94
2022-12-31T02:56:42.104Z,100764.69
2022-12-31T02:59:45.272Z,100762.09
2022-12-31T03:02:17.073Z,100767.84
2022-12-31T03:04:56.515Z,100761.22
2022-12-31T03:07:33.058Z,100760.09
2022-12-31T03:10:01.896Z,100771.38
2022-12-31T03:12:48.397Z,100760.91
2022-12-31T03:15:28.772Z,100772.47
2022-12-31T03:18:10.959Z,100769.00
2022-12-31T03:21:07.424Z,100767.81
2022-12-31T03:23:43.094Z,100762.81
2022-12-31T03:26:12.757Z,100769.81
2022-12-31T03:28:43.358Z,100769.81
2022-12-31T03:31:11.481Z,100775.69
2022-12-31T03:33:41.832Z,100782.88
2022-12-31T03:36:13.570Z,100785.25
2022-12-31T03:38:41.862Z,100778.56
2022-12-31T03:41:12.371Z,100779.59
2022-12-31T03:43:39.899Z,100784.47
2022-12-31T03:46:10.640Z,100772.81
2022-12-31T03:48:38.293Z,100784.91
2022-12-31T03:51:05.741Z,100783.41
2022-12-31T03:53:34.945Z,100777.72
2022-12-31T03:56:02.473Z,100783.81
2022-12-31T03:58:30.066Z,100793.22
2022-12-31T04:00:57.671Z,100786.66
2022-12-31T04:03:25.324Z,100782.56
2022-12-31T04:05:55.542Z,100778.19
2022-12-31T04:08:23.715Z,100782.63
2022-12-31T04:10:51.447Z,100785.84
2022-12-31T04:13:19.075Z,100791.31
2022-12-31T04:15:49.220Z,100783.56
2022-12-31T04:18:16.770Z,100791.19
2022-12-31T04:20:44.215Z,100793.91
2022-12-31T04:23:11.752Z,100786.59
2022-12-31T04:25:39.447Z,100796.56
2022-12-31T04:28:07.435Z,100798.38
2022-12-31T04:30:34.916Z,100793.59
2022-12-31T04:33:02.396Z,100793.22
2022-12-31T04:35:29.875Z,100788.50
2022-12-31T04:37:57.317Z,100789.31
2022-12-31T04:40:24.894Z,100791.84
2022-12-31T04:42:52.372Z,100797.59
2022-12-31T04:45:19.851Z,100792.78
2022-12-31T04:47:47.386Z,100801.25
2022-12-31T04:50:14.900Z,100806.00
2022-12-31T04:52:43.099Z,100807.56
2022-12-31T04:55:11.129Z,100812.84
2022-12-31T04:57:38.895Z,100813.59
2022-12-31T05:00:08.056Z,100814.78
2022-12-31T05:02:35.782Z,100823.59
2022-12-31T05:05:03.461Z,100826.41
2022-12-31T05:07:30.965Z,100827.56
2022-12-31T05:09:58.479Z,100821.22
2022-12-31T05:12:26.435Z,100830.66
2022-12-31T05:14:54.100Z,100825.16
2022-12-31T05:17:21.568Z,100824.97
2022-12-31T05:19:49.052Z,100833.97
2022-12-31T05:22:31.736Z,100837.75
2022-12-31T05:25:02.288Z,100839.22
2022-12-31T05:27:33.367Z,100839.47
2022-12-31T05:30:01.133Z,100848.44
2022-12-31T05:32:28.749Z,100849.66
2022-12-31T05:34:57.197Z,100852.84
2022-12-31T05:37:24.913Z,100858.03
2022-12-31T05:39:53.095Z,100856.22
2022-12-31T05:42:20.751Z,100853.56
2022-12-31T05:44:48.353Z,100861.31
2022-12-31T05:47:16.068Z,100857.66
2022-12-31T05:49:43.564Z,100856.72
2022-12-31T05:52:11.660Z,100860.19
2022-12-31T05:54:39.264Z,100860.94
2022-12-31T05:57:07.506Z,100872.19
2022-12-31T05:59:35.506Z,100866.78
2022-12-31T06:02:03.143Z,100874.13
2022-12-31T06:04:30.860Z,100877.28
2022-12-31T06:06:58.828Z,100871.97
2022-12-31T06:09:26.304Z,100869.63
2022-12-31T06:11:53.932Z,100878.59
2022-12-31T06:14:21.635Z,100876.25
2022-12-31T06:16:49.194Z,100884.72
2022-12-31T06:19:16.859Z,100887.19
2022-12-31T06:21:44.537Z,100895.81
2022-12-31T06:24:12.286Z,100890.28
2022-12-31T06:26:39.868Z,100899.97
2022-12-31T06:29:07.672Z,100899.09
2022-12-31T06:31:35.637Z,100895.63
2022-12-31T06:34:04.154Z,100895.84
2022-12-31T06:36:31.751Z,100899.13
2022-12-31T06:39:00.137Z,100895.09
2022-12-31T06:41:27.696Z,100902.81
2022-12-31T06:43:55.321Z,100895.78
2022-12-31T06:46:22.870Z,100899.03
2022-12-31T06:48:50.358Z,100897.44
2022-12-31T06:51:20.904Z,100912.97
2022-12-31T06:53:51.613Z,100914.34
2022-12-31T06:56:31.270Z,100917.22
2022-12-31T06:59:03.368Z,100910.09
2022-12-31T07:02:09.329Z,100920.19
2022-12-31T07:05:35.699Z,100916.19
2022-12-31T07:08:09.042Z,100919.97
2022-12-31T07:11:14.436Z,100925.41
2022-12-31T07:13:58.290Z,100934.31
2022-12-31T07:16:43.739Z,100936.03
2022-12-31T07:19:45.053Z,100936.09
2022-12-31T07:22:16.904Z,100937.44
2022-12-31T07:24:45.627Z,100934.91
2022-12-31T07:27:29.390Z,100938.28
2022-12-31T07:30:28.749Z,100939.97
2022-12-31T07:33:32.870Z,100939.19
2022-12-31T07:36:40.809Z,100949.44
2022-12-31T07:39:34.763Z,100945.13
2022-12-31T07:42:47.795Z,100945.94
2022-12-31T07:45:49.477Z,100951.59
2022-12-31T07:48:35.121Z,100947.22
2022-12-31T07:51:03.655Z,100958.81
2022-12-31T07:53:34.015Z,100964.72
2022-12-31T07:56:04.255Z,100958.22
2022-12-31T07:58:48.348Z,100971.25
2022-12-31T08:01:28.330Z,100964.56
2022-12-31T08:04:16.370Z,100972.41
2022-12-31T08:07:21.484Z,100972.72
2022-12-31T08:10:21.141Z,100978.66
2022-12-31T08:12:50.486Z,100979.53
2022-12-31T08:15:24.123Z,100968.69
2022-12-31T08:17:55.076Z,100974.72
2022-12-31T08:20:22.726Z,100970.94
2022-12-31T08:23:01.847Z,100977.31
2022-12-31T08:26:02.576Z,100983.25
2022-12-31T08:29:10.625Z,100991.44
2022-12-31T08:32:03.906Z,100982.13
2022-12-31T08:35:04.688Z,100979.88
2022-12-31T08:37:49.717Z,100979.72
2022-12-31T08:40:46.320Z,100980.06
2022-12-31T08:43:34.008Z,100986.19
2022-12-31T08:46:02.036Z,100988.06
2022-12-31T08:48:44.943Z,100975.00
2022-12-31T08:51:30.519Z,100977.94
2022-12-31T08:53:58.875Z,100974.75
2022-12-31T08:56:54.323Z,100976.63
2022-12-31T09:00:00.245Z,100977.66
2022-12-31T09:03:07.627Z,100969.50
2022-12-31T09:05:53.245Z,100970.41
2022-12-31T09:08:35.212Z,100961.16
2022-12-31T09:11:42.785Z,100959.13
2022-12-31T09:14:40.263Z,100956.78
2022-12-31T09:17:42.445Z,100964.84
2022-12-31T09:20:43.842Z,100969.91
2022-12-31T09:23:13.606Z,100964.22
2022-12-31T09:25:57.851Z,100954.28
2022-12-31T09:29:09.392Z,100952.69
2022-12-31T09:32:08.288Z,100948.16
2022-12-31T09:34:47.365Z,100943.06
2022-12-31T09:37:28.719Z,100944.59
2022-12-31T09:40:01.993Z,100942.25
2022-12-31T09:43:16.776Z,100940.50
2022-12-31T09:46:25.158Z,100937.41
2022-12-31T09:49:28.170Z,100939.91
2022-12-31T09:52:26.158Z,100925.06
2022-12-31T09:55:13.469Z,100931.50
2022-12-31T09:58:36.735Z,100918.53
2022-12-31T10:01:32.052Z,100918.06
2022-12-31T10:04:25.404Z,100911.50
2022-12-31T10:07:16.543Z,100902.75
2022-12-31T10:10:06.815Z,100909.97
2022-12-31T10:12:59.510Z,100900.56
2022-12-31T10:16:10.911Z,100889.25
2022-12-31T10:19:18.015Z,100878.41
2022-12-31T10:22:06.156Z,100881.09
2022-12-31T10:25:38.927Z,100881.69
2022-12-31T10:28:56.404Z,100882.50
2022-12-31T10:32:03.092Z,100873.16
2022-12-31T10:34:55.394Z,100874.56
2022-12-31T10:37:46.690Z,100861.41
2022-12-31T10:41:18.687Z,100860.00
2022-12-31T10:44:13.836Z,100857.53
2022-12-31T10:47:23.297Z,100851.06
2022-12-31T10:49:56.559Z,100849.31
2022-12-31T10:52:53.329Z,100842.38
2022-12-31T10:55:57.256Z,100839.91
2022-12-31T10:58:53.947Z,100845.78
2022-12-31T11:01:48.504Z,100845.59
2022-12-31T11:04:24.772Z,100836.09
2022-12-31T11:07:40.056Z,100836.66
2022-12-31T11:10:50.746Z,100836.44
2022-12-31T11:13:36.445Z,100839.31
2022-12-31T11:16:09.378Z,100834.91
2022-12-31T11:19:18.468Z,100831.38
2022-12-31T11:22:19.601Z,100825.84
2022-12-31T11:25:38.901Z,100822.09
2022-12-31T11:28:50.754Z,100820.03
2022-12-31T11:32:07.020Z,100818.34
2022-12-31T11:35:17.062Z,100813.00
2022-12-31T11:38:11.828Z,100815.50
2022-12-31T11:41:08.287Z,100813.88
2022-12-31T11:43:50.525Z,100815.25
2022-12-31T11:46:32.414Z,100813.72
2022-12-31T11:49:13.528Z,100818.69
2022-12-31T11:52:16.072Z,100818.75
2022-12-31T11:55:35.344Z,100818.50
2022-12-31T11:58:17.114Z,100822.47
2022-12-31T12:01:02.585Z,100812.41
2022-12-31T12:03:30.314Z,100812.81
2022-12-31T12:05:59.741Z,100803.03
2022-12-31T12:08:47.945Z,100809.28
2022-12-31T12:11:32.443Z,100799.97
2022-12-31T12:14:00.051Z,100803.63
2022-12-31T12:16:29.477Z,100801.47
2022-12-31T12:19:02.789Z,100806.03
2022-12-31T12:21:31.180Z,100799.97
2022-12-31T12:24:02.572Z,100801.22
2022-12-31T12:26:42.899Z,100794.34
2022-12-31T12:29:23.537Z,100794.22
2022-12-31T12:32:27.529Z,100795.00
2022-12-31T12:34:55.506Z,100793.91
2022-12-31T12:37:35.534Z,100787.94
2022-12-31T12:40:50.790Z,100799.41
2022-12-31T12:43:28.631Z,100803.38
2022-12-31T12:46:20.382Z,100802.00
2022-12-31T12:48:56.375Z,100806.56
2022-12-31T12:51:47.928Z,100799.91
2022-12-31T12:54:29.288Z,100798.88
2022-12-31T12:57:24.923Z,100806.84
2022-12-31T13:00:29.883Z,100815.44
2022-12-31T13:03:34.506Z,100809.81
2022-12-31T13:06:22.255Z,100806.94
2022-12-31T13:08:59.501Z,100804.34
2022-12-31T13:11:47.892Z,100811.22
2022-12-31T13:14:49.155Z,100807.50
2022-12-31T13:18:01.870Z,100816.13
2022-12-31T13:21:08.065Z,100815.78
2022-12-31T13:24:38.962Z,100813.88
2022-12-31T13:27:39.411Z,100824.00
2022-12-31T13:30:28.740Z,100825.94
2022-12-31T13:33:07.521Z,100820.28
2022-12-31T13:35:41.606Z,100819.53
2022-12-31T13:38:22.708Z,100822.88
2022-12-31T13:41:21.799Z,100823.31
2022-12-31T13:44:28.890Z,100833.50
2022-12-31T13:47:20.151Z,100832.81
2022-12-31T13:49:58.046Z,100841.47
2022-12-31T13:52:28.599Z,100845.88
2022-12-31T13:55:20.898Z,100848.47
2022-12-31T13:58:03.379Z,100848.31
2022-12-31T14:00:44.293Z,100846.09
2022-12-31T14:03:35.852Z,100849.13
2022-12-31T14:06:34.362Z,100848.94
2022-12-31T14:09:04.193Z,100849.16
2022-12-31T14:11:57.960Z,100844.91
2022-12-31T14:15:00.593Z,100846.25
2022-12-31T14:18:16.068Z,100853.75
2022-12-31T14:21:12.236Z,100853.94
2022-12-31T14:24:20.612Z,100855.34
2022-12-31T14:26:55.596Z,100859.84
2022-12-31T14:29:47.987Z,100863.72
2022-12-31T14:32:44.063Z,100863.22
2022-12-31T14:35:50.432Z,100860.34
2022-12-31T14:38:47.371Z,100856.75
2022-12-31T14:42:12.826Z,100853.81
2022-12-31T14:48:51.690Z,100848.56
2022-12-31T14:56:51.464Z,100843.72
2022-12-31T14:59:40.213Z,100839.75
2022-12-31T15:02:31.570Z,100843.63
2022-12-31T15:05:16.940Z,100843.28
2022-12-31T15:08:19.733Z,100846.19
2022-12-31T15:11:20.805Z,100852.22
2022-12-31T15:14:44.125Z,100850.47
2022-12-31T15:17:36.348Z,100846.97
2022-12-31T15:20:17.250Z,100846.28
2022-12-31T15:22:50.271Z,100848.13
2022-12-31T15:25:41.614Z,100852.13
2022-12-31T15:28:31.102Z,100848.78
2022-12-31T15:31:18.856Z,100850.72
2022-12-31T15:34:05.741Z,100857.53
2022-12-31T15:36:38.695Z,100856.97
2022-12-31T15:39:40.802Z,100859.28
2022-12-31T15:42:50.288Z,100862.56
2022-12-31T15:45:31.809Z,100856.50
2022-12-31T15:48:03.559Z,100863.13
2022-12-31T15:50:32.158Z,100862.47
2022-12-31T15:53:06.171Z,100866.94
2022-12-31T15:55:48.637Z,100865.66
2022-12-31T15:58:24.451Z,100874.41
2022-12-31T16:01:19.189Z,100872.13
2022-12-31T16:04:15.083Z,100878.25
2022-12-31T16:06:47.382Z,100879.16
2022-12-31T16:09:34.325Z,100876.59
2022-12-31T16:12:10.692Z,100878.81
2022-12-31T16:14:44.222Z,100885.16
2022-12-31T16:17:42.971Z,100886.56
2022-12-31T16:20:32.304Z,100889.94
2022-12-31T16:23:03.524Z,100894.16
2022-12-31T16:25:33.952Z,100892.75
2022-12-31T16:28:04.551Z,100899.41
2022-12-31T16:30:37.269Z,100904.72
2022-12-31T16:33:14.669Z,100900.81
2022-12-31T16:35:42.911Z,100910.06
2022-12-31T16:38:18.181Z,100902.06
2022-12-31T16:41:18.254Z,100899.41
2022-12-31T16:43:48.806Z,100903.88
2022-12-31T16:46:30.948Z,100896.25
2022-12-31T16:49:07.781Z,100909.38
2022-12-31T16:51:40.348Z,100907.31
2022-12-31T16:54:29.595Z,100902.47
2022-12-31T16:56:59.617Z,100913.84
2022-12-31T16:59:40.815Z,100910.53
2022-12-31T17:02:20.756Z,100917.38
2022-12-31T17:04:55.905Z,100912.44
2022-12-31T17:07:33.329Z,100922.13
2022-12-31T17:10:12.573Z,100921.31
2022-12-31T17:15:44.909Z,100922.41
2022-12-31T17:18:24.807Z,100916.94
2022-12-31T17:21:10.137Z,100920.34
2022-12-31T17:23:42.674Z,100927.41
2022-12-31T17:26:14.094Z,100930.03
2022-12-31T17:28:50.447Z,100933.94
2022-12-31T17:31:41.121Z,100948.84
2022-12-31T17:34:14.655Z,100947.00
2022-12-31T17:37:12.924Z,100946.78
2022-12-31T17:39:53.823Z,100948.88
2022-12-31T17:42:33.614Z,100962.75
2022-12-31T17:45:12.262Z,100957.47
2022-12-31T17:47:45.241Z,100962.69
2022-12-31T17:50:26.497Z,100959.31
2022-12-31T17:53:12.773Z,100966.88
2022-12-31T17:55:42.912Z,100961.91
2022-12-31T17:58:47.383Z,100966.88
2022-12-31T18:01:20.552Z,100962.19
2022-12-31T18:03:48.647Z,100967.94
2022-12-31T18:06:19.798Z,100978.44
2022-12-31T18:08:47.712Z,100989.44
2022-12-31T18:11:22.525Z,100983.44
2022-12-31T18:13:50.369Z,100984.44
2022-12-31T18:16:18.115Z,100985.50
2022-12-31T18:18:47.289Z,100987.81
2022-12-31T18:21:32.878Z,100992.59
2022-12-31T18:26:35.301Z,100995.34
2022-12-31T18:29:18.312Z,101010.44
2022-12-31T18:31:49.078Z,101002.66
2022-12-31T18:34:21.156Z,101006.09
2022-12-31T18:36:50.120Z,101003.81
2022-12-31T18:39:17.657Z,101002.38
2022-12-31T18:41:51.738Z,101003.44
2022-12-31T18:44:19.356Z,101002.38
2022-12-31T18:46:46.963Z,100998.66
2022-12-31T18:49:14.542Z,100993.25
2022-12-31T18:51:42.048Z,100992.75
2022-12-31T18:54:12.791Z,100996.94
2022-12-31T18:56:46.538Z,101002.69
2022-12-31T18:59:15.651Z,101003.78
2022-12-31T19:01:43.189Z,101006.88
2022-12-31T19:04:26.604Z,100998.75
2022-12-31T19:06:54.487Z,101007.56
2022-12-31T19:12:14.057Z,101014.84
2022-12-31T19:14:42.361Z,101015.03
2022-12-31T19:19:37.710Z,101018.91
2022-12-31T19:22:05.265Z,101020.13
2022-12-31T19:24:32.893Z,101018.44
2022-12-31T19:27:02.350Z,101015.88
2022-12-31T19:29:30.611Z,101024.19
2022-12-31T19:32:01.053Z,101021.50
2022-12-31T19:34:28.729Z,101021.84
2022-12-31T19:36:56.640Z,101024.47
2022-12-31T19:39:24.205Z,101027.06
2022-12-31T19:41:58.530Z,101033.19
2022-12-31T19:44:27.018Z,101034.63
2022-12-31T19:46:55.050Z,101037.41
2022-12-31T19:49:22.705Z,101026.09
2022-12-31T19:51:50.456Z,101028.72
2022-12-31T19:54:17.983Z,101027.16
2022-12-31T19:56:45.884Z,101030.22
2022-12-31T19:59:14.900Z,101029.84
2022-12-31T20:01:43.871Z,101034.25
2022-12-31T20:04:11.517Z,101036.34
2022-12-31T20:06:39.182Z,101039.66
2022-12-31T20:09:07.378Z,101028.88
2022-12-31T20:11:55.030Z,101035.28
2022-12-31T20:14:23.302Z,101045.69
2022-12-31T20:16:53.133Z,101038.25
2022-12-31T20:19:20.667Z,101043.34
2022-12-31T20:21:48.238Z,101039.69
2022-12-31T20:24:17.199Z,101038.03
2022-12-31T20:26:44.806Z,101040.19
2022-12-31T20:29:12.371Z,101040.41
2022-12-31T20:31:40.034Z,101033.28
2022-12-31T20:34:07.603Z,101033.75
2022-12-31T20:36:35.173Z,101033.38
2022-12-31T20:39:02.717Z,101035.59
2022-12-31T20:41:34.655Z,101039.13
2022-12-31T20:44:02.255Z,101032.38
2022-12-31T20:46:31.275Z,101038.25
2022-12-31T20:49:02.161Z,101042.44
2022-12-31T20:51:33.995Z,101040.47
2022-12-31T20:54:11.625Z,101043.41
2022-12-31T20:56:41.302Z,101057.81
2022-12-31T20:59:10.531Z,101058.31
2022-12-31T21:02:11.725Z,101060.97
2022-12-31T21:04:30.108Z,101048.81
2022-12-31T21:06:57.971Z,101054.25
2022-12-31T21:09:26.410Z,101060.34
2022-12-31T21:12:12.706Z,101064.94
2022-12-31T21:14:44.696Z,101057.94
2022-12-31T21:17:12.658Z,101059.69
2022-12-31T21:19:40.212Z,101056.06
2022-12-31T21:22:07.686Z,101068.66
2022-12-31T21:24:35.133Z,101074.59
2022-12-31T21:27:02.605Z,101065.75
2022-12-31T21:29:34.534Z,101069.63
2022-12-31T21:32:02.469Z,101073.41
2022-12-31T21:34:30.112Z,101077.16
2022-12-31T21:36:57.886Z,101073.22
2022-12-31T21:39:25.396Z,101069.16
2022-12-31T21:41:53.854Z,101060.94
2022-12-31T21:44:25.047Z,101060.19
2022-12-31T21:47:41.032Z,101064.59
2022-12-31T21:50:10.232Z,101066.09
2022-12-31T21:52:41.599Z,101066.84
2022-12-31T21:55:31.414Z,101064.75
2022-12-31T21:58:25.291Z,101066.13
2022-12-31T22:01:04.934Z,101064.88
2022-12-31T22:03:32.651Z,101067.56
2022-12-31T22:06:12.092Z,101066.31
2022-12-31T22:08:44.687Z,101059.59
2022-12-31T22:11:14.399Z,101052.38
2022-12-31T22:13:42.642Z,101057.75
2022-12-31T22:16:11.674Z,101061.59
2022-12-31T22:18:41.129Z,101056.09
2022-12-31T22:21:18.758Z,101068.75
2022-12-31T22:23:50.345Z,101066.59
2022-12-31T22:26:22.372Z,101067.28
2022-12-31T22:28:53.410Z,101072.56
2022-12-31T22:31:26.984Z,101070.22
2022-12-31T22:33:58.437Z,101076.19
2022-12-31T22:36:29.194Z,101079.91
2022-12-31T22:39:00.259Z,101080.16
2022-12-31T22:41:28.976Z,101071.44
2022-12-31T22:44:03.806Z,101073.59
2022-12-31T22:46:36.342Z,101069.19
2022-12-31T22:49:05.227Z,101071.69
2022-12-31T22:51:54.856Z,101071.06
2022-12-31T22:54:21.251Z,101066.84
2022-12-31T22:56:49.378Z,101070.22
2022-12-31T22:59:16.855Z,101073.28
2022-12-31T23:01:44.410Z,101071.81
2022-12-31T23:04:12.294Z,101071.56
2022-12-31T23:06:45.687Z,101065.94
2022-12-31T23:09:34.537Z,101067.06
2022-12-31T23:12:05.843Z,101067.69
2022-12-31T23:14:53.378Z,101072.53
2022-12-31T23:17:45.041Z,101071.50
2022-12-31T23:20:36.406Z,101065.31
2022-12-31T23:23:13.299Z,101067.88
2022-12-31T23:25:50.452Z,101075.28
2022-12-31T23:28:24.305Z,101068.16
2022-12-31T23:30:53.167Z,101059.63
2022-12-31T23:33:24.436Z,101062.16
2022-12-31T23:36:05.236Z,101059.09
2022-12-31T23:38:33.177Z,101074.13
2022-12-31T23:41:00.697Z,101082.13
2022-12-31T23:43:30.408Z,101086.63
2022-12-31T23:45:57.865Z,101073.75
2022-12-31T23:48:25.370Z,101075.31
2022-12-31T23:50:54.176Z,101072.03
2022-12-31T23:53:24.268Z,101078.66
2022-12-31T23:55:53.288Z,101067.06
2022-12-31T23:58:22.396Z,101070.13
